createdAt,value
2022-10-09T00:00:51.017Z,101023.09
2022-10-09T00:03:17.680Z,101022.09
2022-10-09T00:05:44.678Z,101018.56
2022-10-09T00:08:11.036Z,101020.53
2022-10-09T00:10:40.214Z,101012.81
2022-10-09T00:13:07.817Z,101013.56
2022-10-09T00:15:37.088Z,101016.25
2022-10-09T00:18:03.514Z,101013.56
2022-10-09T00:20:29.831Z,101006.38
2022-10-09T00:22:56.182Z,101005.63
2022-10-09T00:25:22.502Z,101011.88
2022-10-09T00:27:48.877Z,101003.06
2022-10-09T00:30:16.607Z,100999.63
2022-10-09T00:32:42.956Z,100999.84
2022-10-09T00:35:09.503Z,100992.78
2022-10-09T00:37:35.980Z,100983.78
2022-10-09T00:40:03.442Z,100991.81
2022-10-09T00:42:32.840Z,100986.38
2022-10-09T00:45:00.586Z,100988.19
2022-10-09T00:47:31.374Z,100980.16
2022-10-09T00:49:59.938Z,100972.22
2022-10-09T00:52:26.598Z,100977.69
2022-10-09T00:54:53.587Z,100968.03
2022-10-09T00:57:20.257Z,100967.97
2022-10-09T00:59:46.712Z,100968.81
2022-10-09T01:02:13.412Z,100973.94
2022-10-09T01:04:41.148Z,100971.13
2022-10-09T01:07:12.814Z,100970.28
2022-10-09T01:09:42.038Z,100965.78
2022-10-09T01:12:12.585Z,100970.16
2022-10-09T01:14:43.532Z,100962.25
2022-10-09T01:17:12.791Z,100962.69
2022-10-09T01:19:56.736Z,100963.44
2022-10-09T01:22:31.951Z,100961.72
2022-10-09T01:25:01.362Z,100962.47
2022-10-09T01:27:29.407Z,100960.66
2022-10-09T01:29:56.861Z,100956.13
2022-10-09T01:32:25.050Z,100952.59
2022-10-09T01:34:52.551Z,100954.56
2022-10-09T01:37:20.216Z,100958.09
2022-10-09T01:39:46.789Z,100947.59
2022-10-09T01:42:14.022Z,100945.25
2022-10-09T01:44:41.744Z,100943.31
2022-10-09T01:47:10.280Z,100936.97
2022-10-09T01:49:40.050Z,100930.69
2022-10-09T01:52:12.054Z,100935.19
2022-10-09T01:54:42.115Z,100933.22
2022-10-09T01:57:10.133Z,100926.16
2022-10-09T01:59:39.457Z,100926.16
2022-10-09T02:02:07.768Z,100926.16
2022-10-09T02:04:35.346Z,100920.91
2022-10-09T02:07:01.871Z,100914.06
2022-10-09T02:09:28.724Z,100907.13
2022-10-09T02:11:57.077Z,100910.53
2022-10-09T02:14:23.576Z,100914.19
2022-10-09T02:16:53.003Z,100914.91
2022-10-09T02:19:23.046Z,100906.03
2022-10-09T02:21:54.584Z,100898.97
2022-10-09T02:24:22.399Z,100897.06
2022-10-09T02:26:49.619Z,100896.19
2022-10-09T02:29:16.746Z,100896.44
2022-10-09T02:31:43.861Z,100891.16
2022-10-09T02:34:12.076Z,100883.13
2022-10-09T02:36:40.009Z,100881.31
2022-10-09T02:39:06.947Z,100882.16
2022-10-09T02:41:33.742Z,100880.44
2022-10-09T02:44:00.168Z,100876.91
2022-10-09T02:46:26.762Z,100876.69
2022-10-09T02:48:53.315Z,100872.19
2022-10-09T02:51:19.727Z,100860.72
2022-10-09T02:53:47.481Z,100866.44
2022-10-09T02:56:13.948Z,100856.56
2022-10-09T02:58:40.532Z,100863.66
2022-10-09T03:01:06.960Z,100855.50
2022-10-09T03:03:33.323Z,100848.31
2022-10-09T03:05:59.936Z,100835.91
2022-10-09T03:08:26.362Z,100839.31
2022-10-09T03:10:54.058Z,100835.69
2022-10-09T03:13:20.354Z,100833.94
2022-10-09T03:15:46.882Z,100828.59
2022-10-09T03:18:13.339Z,100825.06
2022-10-09T03:20:39.900Z,100822.59
2022-10-09T03:23:06.417Z,100823.50
2022-10-09T03:25:32.855Z,100823.38
2022-10-09T03:28:00.635Z,100810.72
2022-10-09T03:30:27.018Z,100820.34
2022-10-09T03:32:53.347Z,100811.34
2022-10-09T03:35:19.789Z,100806.00
2022-10-09T03:37:46.163Z,100806.00
2022-10-09T03:40:12.563Z,100805.13
2022-10-09T03:42:38.886Z,100807.94
2022-10-09T03:45:06.942Z,100807.31
2022-10-09T03:47:33.376Z,100808.16
2022-10-09T03:49:59.880Z,100802.69
2022-10-09T03:52:26.240Z,100799.03
2022-10-09T03:54:52.632Z,100798.06
2022-10-09T03:57:18.952Z,100801.59
2022-10-09T03:59:45.276Z,100795.28
2022-10-09T04:02:13.060Z,100796.13
2022-10-09T04:04:39.555Z,100799.53
2022-10-09T04:07:05.922Z,100793.22
2022-10-09T04:09:32.348Z,100790.56
2022-10-09T04:11:58.862Z,100785.66
2022-10-09T04:14:25.203Z,100783.81
2022-10-09T04:16:51.538Z,100784.56
2022-10-09T04:19:19.275Z,100779.22
2022-10-09T04:21:45.635Z,100780.06
2022-10-09T04:24:12.045Z,100778.97
2022-10-09T04:26:38.561Z,100778.97
2022-10-09T04:29:05.092Z,100789.66
2022-10-09T04:31:31.474Z,100776.28
2022-10-09T04:33:57.854Z,100776.28
2022-10-09T04:36:25.553Z,100773.38
2022-10-09T04:38:51.855Z,100769.44
2022-10-09T04:41:18.621Z,100768.72
2022-10-09T04:43:45.368Z,100763.25
2022-10-09T04:46:14.278Z,100769.22
2022-10-09T04:48:41.622Z,100764.84
2022-10-09T04:51:08.514Z,100762.03
2022-10-09T04:53:36.882Z,100770.06
2022-10-09T04:56:04.386Z,100766.53
2022-10-09T04:58:30.897Z,100769.13
2022-10-09T05:00:57.585Z,100760.22
2022-10-09T05:03:24.088Z,100765.56
2022-10-09T05:05:50.481Z,100767.75
2022-10-09T05:08:16.807Z,100765.94
2022-10-09T05:10:44.458Z,100754.38
2022-10-09T05:13:10.794Z,100752.44
2022-10-09T05:15:37.646Z,100744.28
2022-10-09T05:18:05.030Z,100741.47
2022-10-09T05:20:31.415Z,100741.47
2022-10-09T05:22:57.856Z,100732.47
2022-10-09T05:25:24.188Z,100737.00
2022-10-09T05:27:51.852Z,100726.28
2022-10-09T05:30:18.298Z,100728.06
2022-10-09T05:32:44.646Z,100724.91
2022-10-09T05:35:11.024Z,100720.53
2022-10-09T05:37:37.373Z,100720.41
2022-10-09T05:40:03.850Z,100719.41
2022-10-09T05:42:30.191Z,100717.50
2022-10-09T05:44:57.834Z,100721.88
2022-10-09T05:47:24.245Z,100723.69
2022-10-09T05:49:50.569Z,100721.03
2022-10-09T05:52:16.889Z,100721.16
2022-10-09T05:54:43.318Z,100723.69
2022-10-09T05:57:09.650Z,100722.84
2022-10-09T05:59:35.992Z,100720.53
2022-10-09T06:02:04.051Z,100724.06
2022-10-09T06:04:30.581Z,100723.94
2022-10-09T06:06:56.913Z,100720.31
2022-10-09T06:09:24.419Z,100716.63
2022-10-09T06:11:51.230Z,100721.03
2022-10-09T06:14:17.867Z,100714.81
2022-10-09T06:16:44.879Z,100712.13
2022-10-09T06:19:14.103Z,100714.81
2022-10-09T06:21:40.654Z,100717.50
2022-10-09T06:24:07.378Z,100725.03
2022-10-09T06:26:34.318Z,100719.78
2022-10-09T06:29:01.061Z,100719.69
2022-10-09T06:31:28.528Z,100718.81
2022-10-09T06:33:55.182Z,100709.91
2022-10-09T06:36:24.038Z,100707.25
2022-10-09T06:38:50.762Z,100706.38
2022-10-09T06:41:18.116Z,100706.38
2022-10-09T06:43:48.470Z,100705.41
2022-10-09T06:46:14.850Z,100706.38
2022-10-09T06:48:41.250Z,100708.09
2022-10-09T06:51:08.729Z,100706.53
2022-10-09T06:53:37.021Z,100711.34
2022-10-09T06:56:03.450Z,100703.22
2022-10-09T06:58:29.891Z,100695.19
2022-10-09T07:01:04.069Z,100697.88
2022-10-09T07:03:30.520Z,100695.06
2022-10-09T07:06:05.100Z,100693.38
2022-10-09T07:08:31.999Z,100696.88
2022-10-09T07:10:59.621Z,100691.53
2022-10-09T07:13:26.013Z,100686.03
2022-10-09T07:15:52.397Z,100684.34
2022-10-09T07:18:18.759Z,100692.75
2022-10-09T07:20:45.109Z,100696.34
2022-10-09T07:23:11.605Z,100683.72
2022-10-09T07:25:38.093Z,100680.22
2022-10-09T07:28:05.779Z,100684.47
2022-10-09T07:30:32.242Z,100681.81
2022-10-09T07:32:58.577Z,100678.00
2022-10-09T07:35:24.899Z,100669.97
2022-10-09T07:37:51.472Z,100671.81
2022-10-09T07:40:17.778Z,100671.94
2022-10-09T07:42:44.147Z,100674.00
2022-10-09T07:45:11.982Z,100674.00
2022-10-09T07:47:38.311Z,100668.66
2022-10-09T07:50:04.925Z,100665.00
2022-10-09T07:52:31.284Z,100667.56
2022-10-09T07:54:57.756Z,100662.94
2022-10-09T07:57:24.076Z,100662.94
2022-10-09T07:59:50.401Z,100658.31
2022-10-09T08:02:18.185Z,100662.69
2022-10-09T08:04:44.544Z,100663.53
2022-10-09T08:07:10.926Z,100650.16
2022-10-09T08:09:37.406Z,100648.69
2022-10-09T08:12:03.940Z,100649.66
2022-10-09T08:14:30.335Z,100641.50
2022-10-09T08:16:56.807Z,100642.25
2022-10-09T08:19:24.423Z,100640.44
2022-10-09T08:21:50.947Z,100645.56
2022-10-09T08:24:17.282Z,100627.53
2022-10-09T08:26:43.907Z,100635.44
2022-10-09T08:29:10.911Z,100629.25
2022-10-09T08:31:37.367Z,100631.78
2022-10-09T08:34:03.874Z,100627.28
2022-10-09T08:36:32.095Z,100627.88
2022-10-09T08:38:58.441Z,100623.38
2022-10-09T08:41:29.071Z,100623.28
2022-10-09T08:44:00.716Z,100619.50
2022-10-09T08:46:31.258Z,100627.53
2022-10-09T08:48:59.715Z,100621.09
2022-10-09T08:51:27.771Z,100616.34
2022-10-09T08:53:58.576Z,100615.34
2022-10-09T08:56:25.330Z,100611.72
2022-10-09T08:58:51.941Z,100601.97
2022-10-09T09:01:22.564Z,100611.47
2022-10-09T09:03:56.415Z,100601.34
2022-10-09T09:06:26.886Z,100602.34
2022-10-09T09:08:55.499Z,100599.41
2022-10-09T09:11:27.383Z,100603.69
2022-10-09T09:14:00.671Z,100592.72
2022-10-09T09:16:31.285Z,100591.63
2022-10-09T09:19:07.448Z,100592.47
2022-10-09T09:21:37.650Z,100591.38
2022-10-09T09:24:11.038Z,100594.91
2022-10-09T09:26:40.283Z,100587.50
2022-10-09T09:29:06.784Z,100579.22
2022-10-09T09:31:36.195Z,100582.59
2022-10-09T09:34:05.556Z,100571.28
2022-10-09T09:36:35.224Z,100575.56
2022-10-09T09:41:49.215Z,100573.25
2022-10-09T09:44:16.993Z,100571.31
2022-10-09T09:46:45.494Z,100567.41
2022-10-09T09:49:16.094Z,100572.53
2022-10-09T09:51:42.490Z,100568.03
2022-10-09T09:54:15.282Z,100559.97
2022-10-09T09:59:33.599Z,100556.94
2022-10-09T10:02:00.775Z,100552.31
2022-10-09T10:04:27.423Z,100542.22
2022-10-09T10:06:54.171Z,100536.72
2022-10-09T10:09:20.873Z,100545.81
2022-10-09T10:11:48.151Z,100532.31
2022-10-09T10:14:15.723Z,100536.94
2022-10-09T10:16:43.884Z,100534.16
2022-10-09T10:19:20.244Z,100531.94
2022-10-09T10:21:47.248Z,100525.03
2022-10-09T10:24:18.550Z,100522.34
2022-10-09T10:26:48.032Z,100512.47
2022-10-09T10:29:17.119Z,100513.81
2022-10-09T10:31:50.706Z,100507.22
2022-10-09T10:34:20.715Z,100504.28
2022-10-09T10:36:48.226Z,100502.47
2022-10-09T10:39:26.788Z,100496.16
2022-10-09T10:41:55.591Z,100495.88
2022-10-09T10:44:25.831Z,100482.38
2022-10-09T10:46:55.986Z,100476.25
2022-10-09T10:49:22.902Z,100470.81
2022-10-09T10:51:58.867Z,100467.03
2022-10-09T10:54:36.210Z,100458.50
2022-10-09T10:57:07.710Z,100452.88
2022-10-09T10:59:37.627Z,100458.94
2022-10-09T11:02:18.902Z,100448.22
2022-10-09T11:04:52.102Z,100444.69
2022-10-09T11:07:25.192Z,100445.31
2022-10-09T11:09:54.543Z,100433.34
2022-10-09T11:12:46.905Z,100436.56
2022-10-09T11:15:18.377Z,100431.44
2022-10-09T11:17:49.204Z,100425.00
2022-10-09T11:20:38.169Z,100416.81
2022-10-09T11:23:08.471Z,100410.34
2022-10-09T11:25:40.870Z,100405.69
2022-10-09T11:28:11.371Z,100403.16
2022-10-09T11:30:39.730Z,100400.22
2022-10-09T11:33:11.732Z,100392.88
2022-10-09T11:35:42.726Z,100400.72
2022-10-09T11:38:25.580Z,100387.47
2022-10-09T11:40:52.511Z,100381.97
2022-10-09T11:43:35.369Z,100379.03
2022-10-09T11:46:04.083Z,100375.25
2022-10-09T11:48:34.365Z,100372.19
2022-10-09T11:51:05.719Z,100367.66
2022-10-09T11:53:32.411Z,100369.34
2022-10-09T11:56:02.720Z,100356.59
2022-10-09T11:58:29.092Z,100356.34
2022-10-09T12:00:56.488Z,100354.41
2022-10-09T12:03:24.584Z,100351.44
2022-10-09T12:05:51.067Z,100348.38
2022-10-09T12:08:25.449Z,100344.84
2022-10-09T12:10:53.709Z,100339.50
2022-10-09T12:13:29.689Z,100342.03
2022-10-09T12:15:57.272Z,100333.91
2022-10-09T12:18:25.035Z,100327.59
2022-10-09T12:20:53.073Z,100328.03
2022-10-09T12:23:27.875Z,100309.16
2022-10-09T12:25:55.709Z,100314.38
2022-10-09T12:28:25.437Z,100307.31
2022-10-09T12:30:51.973Z,100306.34
2022-10-09T12:33:22.551Z,100310.59
2022-10-09T12:35:58.374Z,100301.22
2022-10-09T12:38:27.305Z,100289.50
2022-10-09T12:40:55.467Z,100294.38
2022-10-09T12:43:23.412Z,100285.47
2022-10-09T12:45:50.601Z,100292.53
2022-10-09T12:48:19.502Z,100282.66
2022-10-09T12:50:45.830Z,100281.72
2022-10-09T12:53:12.952Z,100279.03
2022-10-09T12:55:43.545Z,100277.94
2022-10-09T12:58:15.233Z,100267.97
2022-10-09T13:00:42.428Z,100263.28
2022-10-09T13:03:21.358Z,100269.25
2022-10-09T13:05:47.817Z,100258.53
2022-10-09T13:08:21.164Z,100255.75
2022-10-09T13:10:48.985Z,100257.31
2022-10-09T13:13:18.477Z,100250.13
2022-10-09T13:15:44.839Z,100248.78
2022-10-09T13:18:20.100Z,100239.16
2022-10-09T13:20:46.473Z,100238.06
2022-10-09T13:23:26.039Z,100227.84
2022-10-09T13:25:53.752Z,100227.84
2022-10-09T13:28:20.808Z,100225.28
2022-10-09T13:30:47.592Z,100223.16
2022-10-09T13:33:14.271Z,100211.44
2022-10-09T13:35:40.638Z,100209.19
2022-10-09T13:38:07.361Z,100206.66
2022-10-09T13:40:33.932Z,100206.09
2022-10-09T13:43:02.490Z,100202.72
2022-10-09T13:45:28.861Z,100198.03
2022-10-09T13:47:55.186Z,100187.31
2022-10-09T13:50:21.505Z,100182.84
2022-10-09T13:52:47.845Z,100170.00
2022-10-09T13:55:14.413Z,100171.38
2022-10-09T13:57:40.879Z,100163.59
2022-10-09T14:00:09.144Z,100159.53
2022-10-09T14:02:35.591Z,100169.13
2022-10-09T14:05:02.029Z,100164.50
2022-10-09T14:07:28.386Z,100162.25
2022-10-09T14:09:54.708Z,100158.97
2022-10-09T14:12:21.138Z,100153.34
2022-10-09T14:14:47.579Z,100150.78
2022-10-09T14:17:15.149Z,100157.13
2022-10-09T14:19:41.496Z,100149.50
2022-10-09T14:22:07.814Z,100147.41
2022-10-09T14:24:34.126Z,100141.19
2022-10-09T14:27:00.494Z,100145.31
2022-10-09T14:29:26.841Z,100141.66
2022-10-09T14:31:53.170Z,100128.06
2022-10-09T14:34:20.788Z,100132.84
2022-10-09T14:36:47.121Z,100135.84
2022-10-09T14:39:13.599Z,100124.69
2022-10-09T14:41:39.941Z,100137.25
2022-10-09T14:44:06.397Z,100123.84
2022-10-09T14:46:33.208Z,100133.34
2022-10-09T14:48:59.867Z,100114.13
2022-10-09T14:51:27.560Z,100127.38
2022-10-09T14:53:55.800Z,100116.22
2022-10-09T14:56:22.146Z,100123.16
2022-10-09T14:58:48.515Z,100116.66
2022-10-09T15:01:16.807Z,100124.56
2022-10-09T15:03:43.602Z,100112.84
2022-10-09T15:06:10.896Z,100107.63
2022-10-09T15:08:39.461Z,100116.38
2022-10-09T15:11:06.354Z,100106.22
2022-10-09T15:13:33.530Z,100106.06
2022-10-09T15:16:00.271Z,100105.66
2022-10-09T15:18:26.746Z,100100.44
2022-10-09T15:20:53.098Z,100097.75
2022-10-09T15:23:19.519Z,100096.75
2022-10-09T15:25:48.984Z,100094.63
2022-10-09T15:28:15.301Z,100097.19
2022-10-09T15:30:43.615Z,100089.72
2022-10-09T15:33:09.944Z,100078.84
2022-10-09T15:35:36.299Z,100080.56
2022-10-09T15:38:02.672Z,100080.41
2022-10-09T15:40:29.056Z,100075.19
2022-10-09T15:42:56.715Z,100070.50
2022-10-09T15:45:23.053Z,100065.69
2022-10-09T15:47:51.710Z,100067.13
2022-10-09T15:50:18.247Z,100065.03
2022-10-09T15:52:44.581Z,100056.81
2022-10-09T15:55:10.936Z,100053.16
2022-10-09T15:57:37.280Z,100057.66
2022-10-09T16:00:05.394Z,100059.22
2022-10-09T16:02:31.741Z,100064.00
2022-10-09T16:04:58.133Z,100059.09
2022-10-09T16:07:24.554Z,100061.63
2022-10-09T16:09:51.331Z,100057.94
2022-10-09T16:12:17.832Z,100056.81
2022-10-09T16:14:44.174Z,100057.56
2022-10-09T16:17:11.780Z,100057.66
2022-10-09T16:19:38.253Z,100056.69
2022-10-09T16:22:05.360Z,100059.09
2022-10-09T16:24:31.892Z,100053.31
2022-10-09T16:26:58.238Z,100059.38
2022-10-09T16:29:24.593Z,100055.72
2022-10-09T16:31:51.004Z,100054.03
2022-10-09T16:34:18.635Z,100047.78
2022-10-09T16:36:44.959Z,100042.44
2022-10-09T16:39:11.316Z,100047.94
2022-10-09T16:41:41.773Z,100047.66
2022-10-09T16:44:11.743Z,100047.66
2022-10-09T16:46:38.153Z,100052.03
2022-10-09T16:49:04.852Z,100042.03
2022-10-09T16:51:34.375Z,100047.94
2022-10-09T16:54:02.076Z,100048.38
2022-10-09T16:56:30.189Z,100049.78
2022-10-09T16:58:57.733Z,100054.88
2022-10-09T17:01:24.660Z,100049.63
2022-10-09T17:03:53.138Z,100054.72
2022-10-09T17:06:19.614Z,100044.00
2022-10-09T17:08:47.368Z,100043.41
2022-10-09T17:11:14.790Z,100038.88
2022-10-09T17:13:41.146Z,100044.84
2022-10-09T17:16:08.589Z,100044.53
2022-10-09T17:18:35.365Z,100045.53
2022-10-09T17:21:02.334Z,100038.22
2022-10-09T17:23:28.779Z,100044.41
2022-10-09T17:25:56.510Z,100050.34
2022-10-09T17:28:22.931Z,100046.66
2022-10-09T17:30:49.334Z,100052.59
2022-10-09T17:33:19.655Z,100051.44
2022-10-09T17:35:46.385Z,100051.44
2022-10-09T17:38:12.811Z,100054.84
2022-10-09T17:40:39.642Z,100047.53
2022-10-09T17:43:08.487Z,100066.16
2022-10-09T17:45:39.289Z,100063.31
2022-10-09T17:48:06.377Z,100064.56
2022-10-09T17:50:32.757Z,100060.63
2022-10-09T17:52:59.195Z,100056.13
2022-10-09T17:55:25.711Z,100060.50
2022-10-09T17:57:52.857Z,100053.16
2022-10-09T18:00:21.936Z,100059.50
2022-10-09T18:02:48.763Z,100060.34
2022-10-09T18:05:15.231Z,100060.22
2022-10-09T18:07:41.560Z,100060.06
2022-10-09T18:10:08.117Z,100070.06
2022-10-09T18:12:34.509Z,100070.06
2022-10-09T18:15:00.868Z,100069.91
2022-10-09T18:17:28.455Z,100064.28
2022-10-09T18:19:54.825Z,100071.50
2022-10-09T18:22:21.204Z,100074.88
2022-10-09T18:24:47.513Z,100068.81
2022-10-09T18:27:13.990Z,100065.13
2022-10-09T18:29:40.430Z,100063.56
2022-10-09T18:32:06.737Z,100060.72
2022-10-09T18:34:38.910Z,100063.28
2022-10-09T18:37:06.179Z,100059.63
2022-10-09T18:39:32.517Z,100064.88
2022-10-09T18:41:58.835Z,100059.50
2022-10-09T18:44:25.165Z,100055.94
2022-10-09T18:46:53.846Z,100059.88
2022-10-09T18:49:22.689Z,100055.75
2022-10-09T18:51:50.664Z,100059.19
2022-10-09T18:54:18.455Z,100058.31
2022-10-09T18:56:45.081Z,100052.00
2022-10-09T18:59:12.867Z,100056.38
2022-10-09T19:01:39.466Z,100058.06
2022-10-09T19:04:05.948Z,100055.53
2022-10-09T19:06:32.339Z,100052.69
2022-10-09T19:08:59.977Z,100055.19
2022-10-09T19:11:26.460Z,100055.34
2022-10-09T19:13:52.800Z,100049.81
2022-10-09T19:16:19.109Z,100051.50
2022-10-09T19:18:45.486Z,100044.03
2022-10-09T19:21:12.177Z,100041.13
2022-10-09T19:23:38.498Z,100043.97
2022-10-09T19:26:06.251Z,100042.97
2022-10-09T19:28:32.703Z,100039.44
2022-10-09T19:30:59.842Z,100037.53
2022-10-09T19:33:26.388Z,100025.84
2022-10-09T19:35:53.818Z,100029.22
2022-10-09T19:38:20.618Z,100023.75
2022-10-09T19:40:47.108Z,100020.22
2022-10-09T19:43:15.599Z,100024.34
2022-10-09T19:45:41.961Z,100022.59
2022-10-09T19:48:08.454Z,100035.06
2022-10-09T19:50:39.476Z,100030.50
2022-10-09T19:53:05.861Z,100031.59
2022-10-09T19:55:32.470Z,100026.25
2022-10-09T19:57:58.850Z,100032.34
2022-10-09T20:00:26.649Z,100033.19
2022-10-09T20:02:53.360Z,100037.53
2022-10-09T20:05:20.025Z,100038.41
2022-10-09T20:07:46.370Z,100043.47
2022-10-09T20:10:12.795Z,100046.31
2022-10-09T20:12:39.136Z,100045.16
2022-10-09T20:15:05.865Z,100044.16
2022-10-09T20:17:33.593Z,100047.69
2022-10-09T20:19:59.909Z,100043.06
2022-10-09T20:22:26.270Z,100046.31
2022-10-09T20:24:52.654Z,100044.34
2022-10-09T20:27:19.004Z,100047.88
2022-10-09T20:29:45.314Z,100045.03
2022-10-09T20:32:11.693Z,100044.88
2022-10-09T20:34:39.459Z,100046.28
2022-10-09T20:37:05.920Z,100044.31
2022-10-09T20:39:32.240Z,100038.13
2022-10-09T20:41:58.584Z,100046.16
2022-10-09T20:44:24.888Z,100047.69
2022-10-09T20:46:51.234Z,100052.22
2022-10-09T20:49:17.607Z,100047.69
2022-10-09T20:51:45.230Z,100041.38
2022-10-09T20:54:15.871Z,100031.31
2022-10-09T20:56:42.226Z,100037.66
2022-10-09T20:59:08.551Z,100035.72
2022-10-09T21:01:34.959Z,100027.41
2022-10-09T21:04:01.355Z,100024.56
2022-10-09T21:06:27.818Z,100026.13
2022-10-09T21:08:56.229Z,100028.81
2022-10-09T21:11:22.834Z,100025.13
2022-10-09T21:13:49.783Z,100032.19
2022-10-09T21:16:17.277Z,100033.16
2022-10-09T21:18:43.752Z,100033.16
2022-10-09T21:21:11.773Z,100031.31
2022-10-09T21:23:38.297Z,100030.47
2022-10-09T21:26:10.134Z,100033.03
2022-10-09T21:28:36.600Z,100030.19
2022-10-09T21:31:07.081Z,100035.44
2022-10-09T21:33:33.593Z,100038.13
2022-10-09T21:36:00.024Z,100028.25
2022-10-09T21:38:26.608Z,100025.94
2022-10-09T21:40:53.026Z,100032.56
2022-10-09T21:43:20.717Z,100030.72
2022-10-09T21:45:49.137Z,100027.94
2022-10-09T21:48:15.807Z,100031.31
2022-10-09T21:50:42.298Z,100032.19
2022-10-09T21:53:08.814Z,100036.56
2022-10-09T21:55:36.578Z,100032.75
2022-10-09T21:58:02.917Z,100033.03
2022-10-09T22:00:30.577Z,100029.91
2022-10-09T22:02:56.906Z,100031.03
2022-10-09T22:05:23.294Z,100030.88
2022-10-09T22:07:49.653Z,100029.06
2022-10-09T22:10:16.105Z,100027.22
2022-10-09T22:12:42.625Z,100020.16
2022-10-09T22:15:09.470Z,100028.94
2022-10-09T22:17:37.118Z,100024.53
2022-10-09T22:20:03.826Z,100025.25
2022-10-09T22:22:30.200Z,100027.38
2022-10-09T22:24:56.594Z,100030.31
2022-10-09T22:27:23.001Z,100027.47
2022-10-09T22:29:49.423Z,100024.81
2022-10-09T22:32:15.766Z,100025.38
2022-10-09T22:34:43.436Z,100018.34
2022-10-09T22:37:09.945Z,100019.16
2022-10-09T22:39:36.270Z,100015.53
2022-10-09T22:42:03.224Z,100019.91
2022-10-09T22:44:29.723Z,100017.75
2022-10-09T22:46:56.054Z,100019.75
2022-10-09T22:49:22.509Z,100009.88
2022-10-09T22:51:50.154Z,100010.72
2022-10-09T22:54:16.589Z,100005.19
2022-10-09T22:56:44.152Z,100003.25
2022-10-09T22:59:11.067Z,100001.41
2022-10-09T23:01:38.932Z,100006.78
2022-10-09T23:04:05.919Z,99999.72
2022-10-09T23:06:32.687Z,99997.03
2022-10-09T23:09:03.537Z,99995.75
2022-10-09T23:11:29.858Z,99995.75
2022-10-09T23:13:57.058Z,99985.75
2022-10-09T23:16:23.948Z,99991.81
2022-10-09T23:18:50.354Z,99983.66
2022-10-09T23:21:18.700Z,99978.28
2022-10-09T23:23:46.176Z,99975.59
2022-10-09T23:26:14.564Z,99981.38
2022-10-09T23:28:41.332Z,99983.75
2022-10-09T23:31:08.755Z,99976.16
2022-10-09T23:33:35.392Z,99973.47
2022-10-09T23:36:01.733Z,99968.94
2022-10-09T23:38:28.135Z,99971.50
2022-10-09T23:40:54.913Z,99970.63
2022-10-09T23:43:22.566Z,99961.47
2022-10-09T23:45:49.050Z,99968.53
2022-10-09T23:48:15.474Z,99961.47
2022-10-09T23:50:41.852Z,99961.47
2022-10-09T23:53:08.207Z,99954.97
2022-10-09T23:55:34.512Z,99961.34
2022-10-09T23:58:00.853Z,99953.88
